sensor_id;sensor_type;location;lat;lon;timestamp;temperature;humidity
11583;DHT22;34299;50.820;4.548;2023-06-14T00:01:15;16.30;99.90
11583;DHT22;34299;50.820;4.548;2023-06-14T00:03:42;16.50;99.90
11583;DHT22;34299;50.820;4.548;2023-06-14T00:06:09;16.30;99.90
11583;DHT22;34299;50.820;4.548;2023-06-14T00:08:37;16.20;99.90
11583;DHT22;34299;50.820;4.548;2023-06-14T00:11:04;16.10;99.90
11583;DHT22;34299;50.820;4.548;2023-06-14T00:13:30;16.20;99.90
11583;DHT22;34299;50.820;4.548;2023-06-14T00:15:59;16.00;99.90
11583;DHT22;34299;50.820;4.548;2023-06-14T00:18:26;15.90;99.90
11583;DHT22;34299;50.820;4.548;2023-06-14T00:20:55;15.90;99.90
11583;DHT22;34299;50.820;4.548;2023-06-14T00:23:22;15.80;99.90
11583;DHT22;34299;50.820;4.548;2023-06-14T00:25:49;15.60;99.90
11583;DHT22;34299;50.820;4.548;2023-06-14T00:28:16;15.30;99.90
11583;DHT22;34299;50.820;4.548;2023-06-14T00:30:43;15.60;99.90
11583;DHT22;34299;50.820;4.548;2023-06-14T00:33:13;15.50;99.90
11583;DHT22;34299;50.820;4.548;2023-06-14T00:35:40;15.30;99.90
11583;DHT22;34299;50.820;4.548;2023-06-14T00:38:08;15.30;99.90
11583;DHT22;34299;50.820;4.548;2023-06-14T00:40:36;15.20;99.90
11583;DHT22;34299;50.820;4.548;2023-06-14T00:43:03;15.10;99.90
11583;DHT22;34299;50.820;4.548;2023-06-14T00:45:30;15.20;99.90
11583;DHT22;34299;50.820;4.548;2023-06-14T00:48:01;15.20;99.90
11583;DHT22;34299;50.820;4.548;2023-06-14T00:50:30;15.10;99.90
11583;DHT22;34299;50.820;4.548;2023-06-14T00:52:58;15.00;99.90
11583;DHT22;34299;50.820;4.548;2023-06-14T00:55:27;15.00;99.90
11583;DHT22;34299;50.820;4.548;2023-06-14T00:57:56;15.00;99.90
11583;DHT22;34299;50.820;4.548;2023-06-14T01:00:23;14.80;99.90
11583;DHT22;34299;50.820;4.548;2023-06-14T01:02:50;14.80;99.90
11583;DHT22;34299;50.820;4.548;2023-06-14T01:05:17;14.70;99.90
11583;DHT22;34299;50.820;4.548;2023-06-14T01:07:59;14.70;99.90
11583;DHT22;34299;50.820;4.548;2023-06-14T01:10:35;14.70;99.90
11583;DHT22;34299;50.820;4.548;2023-06-14T01:13:07;14.70;99.90
11583;DHT22;34299;50.820;4.548;2023-06-14T01:15:36;14.70;99.90
11583;DHT22;34299;50.820;4.548;2023-06-14T01:18:04;14.80;99.90
11583;DHT22;34299;50.820;4.548;2023-06-14T01:20:33;14.70;99.90
11583;DHT22;34299;50.820;4.548;2023-06-14T01:23:04;14.60;99.90
11583;DHT22;34299;50.820;4.548;2023-06-14T01:25:31;14.50;99.90
11583;DHT22;34299;50.820;4.548;2023-06-14T01:28:00;14.50;99.90
11583;DHT22;34299;50.820;4.548;2023-06-14T01:30:29;14.40;99.90
11583;DHT22;34299;50.820;4.548;2023-06-14T01:32:59;14.30;99.90
11583;DHT22;34299;50.820;4.548;2023-06-14T01:35:26;14.30;99.90
11583;DHT22;34299;50.820;4.548;2023-06-14T01:37:53;14.30;99.90
11583;DHT22;34299;50.820;4.548;2023-06-14T01:40:23;14.10;99.90
11583;DHT22;34299;50.820;4.548;2023-06-14T01:42:51;14.30;99.90
11583;DHT22;34299;50.820;4.548;2023-06-14T01:45:19;14.60;99.90
11583;DHT22;34299;50.820;4.548;2023-06-14T01:47:47;14.70;99.90
11583;DHT22;34299;50.820;4.548;2023-06-14T01:50:14;14.90;99.90
11583;DHT22;34299;50.820;4.548;2023-06-14T01:52:41;14.90;99.90
11583;DHT22;34299;50.820;4.548;2023-06-14T01:55:08;14.80;99.90
11583;DHT22;34299;50.820;4.548;2023-06-14T01:57:36;14.50;99.90
11583;DHT22;34299;50.820;4.548;2023-06-14T02:00:04;14.40;99.90
11583;DHT22;34299;50.820;4.548;2023-06-14T02:02:36;14.20;99.90
11583;DHT22;34299;50.820;4.548;2023-06-14T02:05:03;14.50;99.90
11583;DHT22;34299;50.820;4.548;2023-06-14T02:07:30;14.60;99.90
11583;DHT22;34299;50.820;4.548;2023-06-14T02:09:57;14.60;99.90
11583;DHT22;34299;50.820;4.548;2023-06-14T02:12:24;14.60;99.90
11583;DHT22;34299;50.820;4.548;2023-06-14T02:14:52;14.40;99.90
11583;DHT22;34299;50.820;4.548;2023-06-14T02:17:20;14.40;99.90
11583;DHT22;34299;50.820;4.548;2023-06-14T02:19:46;14.40;99.90
11583;DHT22;34299;50.820;4.548;2023-06-14T02:22:14;14.40;99.90
11583;DHT22;34299;50.820;4.548;2023-06-14T02:24:41;14.20;99.90
11583;DHT22;34299;50.820;4.548;2023-06-14T02:27:08;14.10;99.90
11583;DHT22;34299;50.820;4.548;2023-06-14T02:29:36;14.10;99.90
11583;DHT22;34299;50.820;4.548;2023-06-14T02:32:05;14.30;99.90
11583;DHT22;34299;50.820;4.548;2023-06-14T02:34:33;14.40;99.90
11583;DHT22;34299;50.820;4.548;2023-06-14T02:36:59;14.20;99.90
11583;DHT22;34299;50.820;4.548;2023-06-14T02:39:28;13.90;99.90
11583;DHT22;34299;50.820;4.548;2023-06-14T02:41:55;13.70;99.90
11583;DHT22;34299;50.820;4.548;2023-06-14T02:44:24;13.50;99.90
11583;DHT22;34299;50.820;4.548;2023-06-14T02:46:52;13.60;99.90
11583;DHT22;34299;50.820;4.548;2023-06-14T02:49:20;13.70;99.90
11583;DHT22;34299;50.820;4.548;2023-06-14T02:51:47;13.50;99.90
11583;DHT22;34299;50.820;4.548;2023-06-14T02:54:15;13.50;99.90
11583;DHT22;34299;50.820;4.548;2023-06-14T02:56:42;13.30;99.90
11583;DHT22;34299;50.820;4.548;2023-06-14T02:59:08;13.30;99.90
11583;DHT22;34299;50.820;4.548;2023-06-14T03:01:35;13.20;99.90
11583;DHT22;34299;50.820;4.548;2023-06-14T03:04:06;13.10;99.90
11583;DHT22;34299;50.820;4.548;2023-06-14T03:06:35;13.50;99.90
11583;DHT22;34299;50.820;4.548;2023-06-14T03:09:02;13.80;99.90
11583;DHT22;34299;50.820;4.548;2023-06-14T03:11:31;13.80;99.90
11583;DHT22;34299;50.820;4.548;2023-06-14T03:13:58;13.90;99.90
11583;DHT22;34299;50.820;4.548;2023-06-14T03:16:25;13.60;99.90
11583;DHT22;34299;50.820;4.548;2023-06-14T03:18:55;13.50;99.90
11583;DHT22;34299;50.820;4.548;2023-06-14T03:21:24;13.30;99.90
11583;DHT22;34299;50.820;4.548;2023-06-14T03:23:52;13.20;99.90
11583;DHT22;34299;50.820;4.548;2023-06-14T03:26:20;13.40;99.90
11583;DHT22;34299;50.820;4.548;2023-06-14T03:28:48;13.50;99.90
11583;DHT22;34299;50.820;4.548;2023-06-14T03:31:15;13.40;99.90
11583;DHT22;34299;50.820;4.548;2023-06-14T03:33:42;13.30;99.90
11583;DHT22;34299;50.820;4.548;2023-06-14T03:36:09;13.30;99.90
11583;DHT22;34299;50.820;4.548;2023-06-14T03:38:36;13.30;99.90
11583;DHT22;34299;50.820;4.548;2023-06-14T03:41:04;13.10;99.90
11583;DHT22;34299;50.820;4.548;2023-06-14T03:43:31;13.00;99.90
11583;DHT22;34299;50.820;4.548;2023-06-14T03:45:59;12.90;99.90
11583;DHT22;34299;50.820;4.548;2023-06-14T03:48:26;12.80;99.90
11583;DHT22;34299;50.820;4.548;2023-06-14T03:50:52;13.00;99.90
11583;DHT22;34299;50.820;4.548;2023-06-14T03:53:20;13.30;99.90
11583;DHT22;34299;50.820;4.548;2023-06-14T03:55:49;13.50;99.90
11583;DHT22;34299;50.820;4.548;2023-06-14T03:58:19;13.50;99.90
11583;DHT22;34299;50.820;4.548;2023-06-14T04:00:46;13.40;99.90
11583;DHT22;34299;50.820;4.548;2023-06-14T04:03:13;13.10;99.90
11583;DHT22;34299;50.820;4.548;2023-06-14T04:05:41;13.10;99.90
11583;DHT22;34299;50.820;4.548;2023-06-14T04:08:09;13.00;99.90
11583;DHT22;34299;50.820;4.548;2023-06-14T04:10:36;13.00;99.90
11583;DHT22;34299;50.820;4.548;2023-06-14T04:13:04;13.00;99.90
11583;DHT22;34299;50.820;4.548;2023-06-14T04:15:34;12.90;99.90
11583;DHT22;34299;50.820;4.548;2023-06-14T04:18:01;12.80;99.90
11583;DHT22;34299;50.820;4.548;2023-06-14T04:20:28;12.90;99.90
11583;DHT22;34299;50.820;4.548;2023-06-14T04:22:56;13.00;99.90
11583;DHT22;34299;50.820;4.548;2023-06-14T04:25:23;13.20;99.90
11583;DHT22;34299;50.820;4.548;2023-06-14T04:27:53;13.30;99.90
11583;DHT22;34299;50.820;4.548;2023-06-14T04:30:20;13.20;99.90
11583;DHT22;34299;50.820;4.548;2023-06-14T04:32:54;13.30;99.90
11583;DHT22;34299;50.820;4.548;2023-06-14T04:35:21;13.30;99.90
11583;DHT22;34299;50.820;4.548;2023-06-14T04:37:49;13.40;99.90
11583;DHT22;34299;50.820;4.548;2023-06-14T04:40:17;13.50;99.90
11583;DHT22;34299;50.820;4.548;2023-06-14T04:42:44;13.60;99.90
11583;DHT22;34299;50.820;4.548;2023-06-14T04:45:11;13.60;99.90
11583;DHT22;34299;50.820;4.548;2023-06-14T04:47:38;13.60;99.90
11583;DHT22;34299;50.820;4.548;2023-06-14T04:50:08;13.80;99.90
11583;DHT22;34299;50.820;4.548;2023-06-14T04:52:36;13.70;99.90
11583;DHT22;34299;50.820;4.548;2023-06-14T04:55:03;13.70;99.90
11583;DHT22;34299;50.820;4.548;2023-06-14T04:57:31;13.90;99.90
11583;DHT22;34299;50.820;4.548;2023-06-14T04:59:58;14.00;99.90
11583;DHT22;34299;50.820;4.548;2023-06-14T05:02:26;14.00;99.90
11583;DHT22;34299;50.820;4.548;2023-06-14T05:04:54;14.10;99.90
11583;DHT22;34299;50.820;4.548;2023-06-14T05:07:23;14.30;99.90
11583;DHT22;34299;50.820;4.548;2023-06-14T05:09:51;14.40;99.90
11583;DHT22;34299;50.820;4.548;2023-06-14T05:12:18;14.40;99.90
11583;DHT22;34299;50.820;4.548;2023-06-14T05:14:45;14.50;99.90
11583;DHT22;34299;50.820;4.548;2023-06-14T05:17:12;14.60;99.90
11583;DHT22;34299;50.820;4.548;2023-06-14T05:19:39;14.90;99.90
11583;DHT22;34299;50.820;4.548;2023-06-14T05:22:06;14.90;99.90
11583;DHT22;34299;50.820;4.548;2023-06-14T05:24:34;15.00;99.90
11583;DHT22;34299;50.820;4.548;2023-06-14T05:27:01;15.10;99.90
11583;DHT22;34299;50.820;4.548;2023-06-14T05:29:28;15.20;99.90
11583;DHT22;34299;50.820;4.548;2023-06-14T05:31:55;15.20;99.90
11583;DHT22;34299;50.820;4.548;2023-06-14T05:34:22;15.40;99.90
11583;DHT22;34299;50.820;4.548;2023-06-14T05:36:49;15.40;99.90
11583;DHT22;34299;50.820;4.548;2023-06-14T05:39:16;15.50;99.90
11583;DHT22;34299;50.820;4.548;2023-06-14T05:41:45;15.70;99.90
11583;DHT22;34299;50.820;4.548;2023-06-14T05:44:11;15.80;99.90
11583;DHT22;34299;50.820;4.548;2023-06-14T05:46:38;15.80;99.90
11583;DHT22;34299;50.820;4.548;2023-06-14T05:49:06;16.10;99.90
11583;DHT22;34299;50.820;4.548;2023-06-14T05:51:33;16.20;99.90
11583;DHT22;34299;50.820;4.548;2023-06-14T05:54:00;16.30;99.90
11583;DHT22;34299;50.820;4.548;2023-06-14T05:56:27;16.50;99.90
11583;DHT22;34299;50.820;4.548;2023-06-14T05:58:55;16.80;99.90
11583;DHT22;34299;50.820;4.548;2023-06-14T06:01:23;17.00;99.90
11583;DHT22;34299;50.820;4.548;2023-06-14T06:03:50;17.10;99.90
11583;DHT22;34299;50.820;4.548;2023-06-14T06:06:17;17.40;99.90
11583;DHT22;34299;50.820;4.548;2023-06-14T06:08:44;17.50;99.90
11583;DHT22;34299;50.820;4.548;2023-06-14T06:11:12;17.60;99.90
11583;DHT22;34299;50.820;4.548;2023-06-14T06:13:39;17.60;99.90
11583;DHT22;34299;50.820;4.548;2023-06-14T06:16:07;17.70;99.90
11583;DHT22;34299;50.820;4.548;2023-06-14T06:18:34;17.80;99.90
11583;DHT22;34299;50.820;4.548;2023-06-14T06:21:03;18.00;99.90
11583;DHT22;34299;50.820;4.548;2023-06-14T08:16:51;18.10;99.90
11583;DHT22;34299;50.820;4.548;2023-06-14T08:19:18;24.10;99.90
11583;DHT22;34299;50.820;4.548;2023-06-14T08:21:45;24.10;99.90
11583;DHT22;34299;50.820;4.548;2023-06-14T08:24:13;24.30;99.90
11583;DHT22;34299;50.820;4.548;2023-06-14T08:26:40;24.40;99.90
11583;DHT22;34299;50.820;4.548;2023-06-14T08:29:07;24.60;99.90
11583;DHT22;34299;50.820;4.548;2023-06-14T08:31:34;24.60;99.90
11583;DHT22;34299;50.820;4.548;2023-06-14T08:34:03;24.80;99.90
11583;DHT22;34299;50.820;4.548;2023-06-14T08:36:30;25.10;99.90
11583;DHT22;34299;50.820;4.548;2023-06-14T08:38:57;25.20;99.90
11583;DHT22;34299;50.820;4.548;2023-06-14T08:41:24;25.10;99.90
11583;DHT22;34299;50.820;4.548;2023-06-14T08:43:51;24.90;99.90
11583;DHT22;34299;50.820;4.548;2023-06-14T08:46:19;24.80;99.90
11583;DHT22;34299;50.820;4.548;2023-06-14T08:48:49;25.00;99.90
11583;DHT22;34299;50.820;4.548;2023-06-14T08:51:19;25.20;99.90
11583;DHT22;34299;50.820;4.548;2023-06-14T08:53:52;25.10;99.90
11583;DHT22;34299;50.820;4.548;2023-06-14T08:56:20;25.20;99.90
11583;DHT22;34299;50.820;4.548;2023-06-14T08:58:48;25.20;99.90
11583;DHT22;34299;50.820;4.548;2023-06-14T09:01:16;25.40;99.90
11583;DHT22;34299;50.820;4.548;2023-06-14T09:03:43;25.30;99.90
11583;DHT22;34299;50.820;4.548;2023-06-14T09:06:11;25.50;99.90
11583;DHT22;34299;50.820;4.548;2023-06-14T09:08:44;25.70;99.90
11583;DHT22;34299;50.820;4.548;2023-06-14T09:11:12;25.90;99.90
11583;DHT22;34299;50.820;4.548;2023-06-14T09:13:41;25.90;99.90
11583;DHT22;34299;50.820;4.548;2023-06-14T09:16:09;26.00;99.90
11583;DHT22;34299;50.820;4.548;2023-06-14T09:18:37;26.10;99.90
11583;DHT22;34299;50.820;4.548;2023-06-14T09:21:06;26.30;99.90
11583;DHT22;34299;50.820;4.548;2023-06-14T09:23:36;26.60;99.90
11583;DHT22;34299;50.820;4.548;2023-06-14T09:26:08;26.80;99.90
11583;DHT22;34299;50.820;4.548;2023-06-14T09:28:35;26.80;99.90
11583;DHT22;34299;50.820;4.548;2023-06-14T09:31:02;27.00;99.90
11583;DHT22;34299;50.820;4.548;2023-06-14T09:33:31;27.00;99.90
11583;DHT22;34299;50.820;4.548;2023-06-14T09:35:58;26.80;99.90
11583;DHT22;34299;50.820;4.548;2023-06-14T09:38:25;26.90;99.90
11583;DHT22;34299;50.820;4.548;2023-06-14T09:40:55;26.90;99.90
11583;DHT22;34299;50.820;4.548;2023-06-14T09:43:24;27.30;99.90
11583;DHT22;34299;50.820;4.548;2023-06-14T09:45:54;27.50;99.90
11583;DHT22;34299;50.820;4.548;2023-06-14T09:48:21;27.50;99.90
11583;DHT22;34299;50.820;4.548;2023-06-14T09:50:50;27.30;99.90
11583;DHT22;34299;50.820;4.548;2023-06-14T09:53:21;27.30;99.30
11583;DHT22;34299;50.820;4.548;2023-06-14T09:55:50;27.20;99.70
11583;DHT22;34299;50.820;4.548;2023-06-14T09:58:20;27.50;99.10
11583;DHT22;34299;50.820;4.548;2023-06-14T10:00:51;27.60;97.80
11583;DHT22;34299;50.820;4.548;2023-06-14T10:03:24;27.70;97.80
11583;DHT22;34299;50.820;4.548;2023-06-14T10:05:52;27.80;97.80
11583;DHT22;34299;50.820;4.548;2023-06-14T10:08:24;28.10;96.80
11583;DHT22;34299;50.820;4.548;2023-06-14T10:13:20;28.40;96.50
11583;DHT22;34299;50.820;4.548;2023-06-14T10:15:54;28.60;95.30
11583;DHT22;34299;50.820;4.548;2023-06-14T10:18:31;28.60;93.30
11583;DHT22;34299;50.820;4.548;2023-06-14T10:21:06;28.30;94.90
11583;DHT22;34299;50.820;4.548;2023-06-14T10:23:37;28.70;96.40
11583;DHT22;34299;50.820;4.548;2023-06-14T10:26:05;28.50;94.40
11583;DHT22;34299;50.820;4.548;2023-06-14T10:28:32;28.70;93.40
11583;DHT22;34299;50.820;4.548;2023-06-14T10:31:05;28.80;93.60
11583;DHT22;34299;50.820;4.548;2023-06-14T10:33:33;28.90;93.90
11583;DHT22;34299;50.820;4.548;2023-06-14T10:36:27;29.30;91.70
11583;DHT22;34299;50.820;4.548;2023-06-14T10:39:00;29.70;91.30
11583;DHT22;34299;50.820;4.548;2023-06-14T10:41:28;29.80;91.40
11583;DHT22;34299;50.820;4.548;2023-06-14T10:44:32;29.90;89.80
11583;DHT22;34299;50.820;4.548;2023-06-14T10:47:01;28.90;91.40
11583;DHT22;34299;50.820;4.548;2023-06-14T10:49:37;29.40;91.40
11583;DHT22;34299;50.820;4.548;2023-06-14T10:52:08;29.40;89.00
11583;DHT22;34299;50.820;4.548;2023-06-14T10:54:37;29.00;89.20
11583;DHT22;34299;50.820;4.548;2023-06-14T10:57:06;29.30;90.80
11583;DHT22;34299;50.820;4.548;2023-06-14T10:59:34;29.40;89.90
11583;DHT22;34299;50.820;4.548;2023-06-14T11:02:20;29.80;90.00
11583;DHT22;34299;50.820;4.548;2023-06-14T11:04:54;30.40;89.30
11583;DHT22;34299;50.820;4.548;2023-06-14T11:07:47;30.80;86.50
11583;DHT22;34299;50.820;4.548;2023-06-14T11:10:23;30.50;82.10
11583;DHT22;34299;50.820;4.548;2023-06-14T11:12:55;30.50;81.90
11583;DHT22;34299;50.820;4.548;2023-06-14T11:15:28;30.40;82.50
11583;DHT22;34299;50.820;4.548;2023-06-14T11:17:57;30.10;80.70
11583;DHT22;34299;50.820;4.548;2023-06-14T11:20:25;30.20;83.20
11583;DHT22;34299;50.820;4.548;2023-06-14T11:22:52;30.20;79.80
11583;DHT22;34299;50.820;4.548;2023-06-14T11:25:20;30.80;79.80
11583;DHT22;34299;50.820;4.548;2023-06-14T11:27:49;30.50;80.90
11583;DHT22;34299;50.820;4.548;2023-06-14T11:30:17;30.80;80.40
11583;DHT22;34299;50.820;4.548;2023-06-14T11:32:46;31.20;80.90
11583;DHT22;34299;50.820;4.548;2023-06-14T11:35:15;31.70;81.20
11583;DHT22;34299;50.820;4.548;2023-06-14T11:37:43;31.60;78.30
11583;DHT22;34299;50.820;4.548;2023-06-14T11:40:12;31.10;74.60
11583;DHT22;34299;50.820;4.548;2023-06-14T11:42:40;31.30;79.20
11583;DHT22;34299;50.820;4.548;2023-06-14T11:45:08;31.50;74.40
11583;DHT22;34299;50.820;4.548;2023-06-14T11:47:36;31.60;75.70
11583;DHT22;34299;50.820;4.548;2023-06-14T11:50:05;31.70;74.10
11583;DHT22;34299;50.820;4.548;2023-06-14T11:52:33;31.70;73.40
11583;DHT22;34299;50.820;4.548;2023-06-14T11:55:01;32.20;74.40
11583;DHT22;34299;50.820;4.548;2023-06-14T11:57:30;32.20;72.10
11583;DHT22;34299;50.820;4.548;2023-06-14T11:59:57;32.40;69.90
11583;DHT22;34299;50.820;4.548;2023-06-14T12:02:25;32.20;70.80
11583;DHT22;34299;50.820;4.548;2023-06-14T12:04:54;32.10;68.30
11583;DHT22;34299;50.820;4.548;2023-06-14T12:07:22;32.00;71.60
11583;DHT22;34299;50.820;4.548;2023-06-14T12:10:09;32.20;68.60
11583;DHT22;34299;50.820;4.548;2023-06-14T12:12:37;32.30;70.90
11583;DHT22;34299;50.820;4.548;2023-06-14T12:15:05;32.70;70.90
11583;DHT22;34299;50.820;4.548;2023-06-14T12:17:33;32.80;70.40
11583;DHT22;34299;50.820;4.548;2023-06-14T12:20:05;33.40;69.10
11583;DHT22;34299;50.820;4.548;2023-06-14T12:22:36;33.80;67.70
11583;DHT22;34299;50.820;4.548;2023-06-14T12:25:05;33.30;66.40
11583;DHT22;34299;50.820;4.548;2023-06-14T12:27:33;33.50;67.00
11583;DHT22;34299;50.820;4.548;2023-06-14T12:30:01;33.00;67.00
11583;DHT22;34299;50.820;4.548;2023-06-14T12:32:29;32.90;68.70
11583;DHT22;34299;50.820;4.548;2023-06-14T12:34:56;32.60;67.60
11583;DHT22;34299;50.820;4.548;2023-06-14T12:37:23;32.30;64.10
11583;DHT22;34299;50.820;4.548;2023-06-14T12:39:50;32.10;67.90
11583;DHT22;34299;50.820;4.548;2023-06-14T12:42:17;32.50;68.90
11583;DHT22;34299;50.820;4.548;2023-06-14T12:44:46;33.00;64.40
11583;DHT22;34299;50.820;4.548;2023-06-14T12:47:13;33.30;62.20
11583;DHT22;34299;50.820;4.548;2023-06-14T12:49:40;32.30;62.80
11583;DHT22;34299;50.820;4.548;2023-06-14T12:52:08;33.10;66.20
11583;DHT22;34299;50.820;4.548;2023-06-14T12:54:35;33.20;61.70
11583;DHT22;34299;50.820;4.548;2023-06-14T12:57:05;33.60;63.00
11583;DHT22;34299;50.820;4.548;2023-06-14T12:59:32;33.60;62.00
11583;DHT22;34299;50.820;4.548;2023-06-14T13:02:11;34.20;65.20
11583;DHT22;34299;50.820;4.548;2023-06-14T13:04:38;34.80;62.60
11583;DHT22;34299;50.820;4.548;2023-06-14T13:07:06;34.60;58.90
11583;DHT22;34299;50.820;4.548;2023-06-14T13:09:33;34.60;57.70
11583;DHT22;34299;50.820;4.548;2023-06-14T13:12:00;33.60;56.30
11583;DHT22;34299;50.820;4.548;2023-06-14T13:14:28;32.70;57.40
11583;DHT22;34299;50.820;4.548;2023-06-14T13:16:55;32.90;57.40
11583;DHT22;34299;50.820;4.548;2023-06-14T13:19:23;32.70;59.40
11583;DHT22;34299;50.820;4.548;2023-06-14T13:21:50;32.60;60.00
11583;DHT22;34299;50.820;4.548;2023-06-14T13:24:17;33.70;60.00
11583;DHT22;34299;50.820;4.548;2023-06-14T13:26:44;34.60;59.50
11583;DHT22;34299;50.820;4.548;2023-06-14T13:29:11;34.60;56.10
11583;DHT22;34299;50.820;4.548;2023-06-14T13:31:39;34.10;55.90
11583;DHT22;34299;50.820;4.548;2023-06-14T13:34:06;33.90;58.40
11583;DHT22;34299;50.820;4.548;2023-06-14T13:36:34;34.00;54.90
11583;DHT22;34299;50.820;4.548;2023-06-14T13:51:26;34.30;58.70
11583;DHT22;34299;50.820;4.548;2023-06-14T13:53:54;35.60;54.90
11583;DHT22;34299;50.820;4.548;2023-06-14T13:56:22;35.40;54.90
11583;DHT22;34299;50.820;4.548;2023-06-14T13:58:50;35.70;54.10
11583;DHT22;34299;50.820;4.548;2023-06-14T14:01:18;36.60;53.20
11583;DHT22;34299;50.820;4.548;2023-06-14T14:03:45;36.40;52.60
11583;DHT22;34299;50.820;4.548;2023-06-14T14:06:13;36.70;51.50
11583;DHT22;34299;50.820;4.548;2023-06-14T14:08:40;36.40;51.30
11583;DHT22;34299;50.820;4.548;2023-06-14T14:11:09;36.10;52.50
11583;DHT22;34299;50.820;4.548;2023-06-14T14:13:36;36.20;51.60
11583;DHT22;34299;50.820;4.548;2023-06-14T14:16:04;36.30;51.40
11583;DHT22;34299;50.820;4.548;2023-06-14T14:18:32;36.30;51.80
11583;DHT22;34299;50.820;4.548;2023-06-14T14:20:59;36.30;50.20
11583;DHT22;34299;50.820;4.548;2023-06-14T14:23:27;35.80;49.20
11583;DHT22;34299;50.820;4.548;2023-06-14T14:25:55;36.00;48.80
11583;DHT22;34299;50.820;4.548;2023-06-14T14:28:24;36.20;47.80
11583;DHT22;34299;50.820;4.548;2023-06-14T14:30:51;35.50;47.40
11583;DHT22;34299;50.820;4.548;2023-06-14T14:33:19;34.80;47.90
11583;DHT22;34299;50.820;4.548;2023-06-14T14:35:46;33.40;48.00
11583;DHT22;34299;50.820;4.548;2023-06-14T14:38:13;33.60;49.40
11583;DHT22;34299;50.820;4.548;2023-06-14T14:40:41;34.30;49.70
11583;DHT22;34299;50.820;4.548;2023-06-14T14:43:08;34.70;47.50
11583;DHT22;34299;50.820;4.548;2023-06-14T14:45:37;35.70;49.70
11583;DHT22;34299;50.820;4.548;2023-06-14T14:48:05;35.10;46.90
11583;DHT22;34299;50.820;4.548;2023-06-14T14:50:33;34.30;47.20
11583;DHT22;34299;50.820;4.548;2023-06-14T14:53:00;34.50;46.80
11583;DHT22;34299;50.820;4.548;2023-06-14T14:55:27;34.50;48.50
11583;DHT22;34299;50.820;4.548;2023-06-14T14:57:56;34.10;46.30
11583;DHT22;34299;50.820;4.548;2023-06-14T15:00:23;33.20;48.40
11583;DHT22;34299;50.820;4.548;2023-06-14T15:02:52;34.30;48.10
11583;DHT22;34299;50.820;4.548;2023-06-14T15:05:19;33.70;47.20
11583;DHT22;34299;50.820;4.548;2023-06-14T15:07:47;33.90;48.10
11583;DHT22;34299;50.820;4.548;2023-06-14T15:10:14;34.70;48.00
11583;DHT22;34299;50.820;4.548;2023-06-14T15:12:41;35.10;46.40
11583;DHT22;34299;50.820;4.548;2023-06-14T15:15:09;34.80;47.00
11583;DHT22;34299;50.820;4.548;2023-06-14T15:17:36;35.20;46.40
11583;DHT22;34299;50.820;4.548;2023-06-14T15:20:06;36.30;46.40
11583;DHT22;34299;50.820;4.548;2023-06-14T15:22:33;37.50;45.80
11583;DHT22;34299;50.820;4.548;2023-06-14T15:25:00;36.30;46.10
11583;DHT22;34299;50.820;4.548;2023-06-14T15:27:27;37.00;46.10
11583;DHT22;34299;50.820;4.548;2023-06-14T15:29:54;38.30;44.70
11583;DHT22;34299;50.820;4.548;2023-06-14T15:32:21;37.80;43.70
11583;DHT22;34299;50.820;4.548;2023-06-14T15:34:49;35.90;44.30
11583;DHT22;34299;50.820;4.548;2023-06-14T15:37:17;37.10;44.30
11583;DHT22;34299;50.820;4.548;2023-06-14T15:39:44;38.30;44.40
11583;DHT22;34299;50.820;4.548;2023-06-14T15:42:11;39.50;44.00
11583;DHT22;34299;50.820;4.548;2023-06-14T15:44:38;40.60;42.90
11583;DHT22;34299;50.820;4.548;2023-06-14T15:47:07;40.30;42.10
11583;DHT22;34299;50.820;4.548;2023-06-14T15:49:34;40.50;41.40
11583;DHT22;34299;50.820;4.548;2023-06-14T15:52:01;40.20;40.70
11583;DHT22;34299;50.820;4.548;2023-06-14T15:54:30;40.90;40.90
11583;DHT22;34299;50.820;4.548;2023-06-14T15:56:57;40.40;39.00
11583;DHT22;34299;50.820;4.548;2023-06-14T15:59:24;41.10;39.90
11583;DHT22;34299;50.820;4.548;2023-06-14T16:01:52;42.50;39.90
11583;DHT22;34299;50.820;4.548;2023-06-14T16:04:19;41.40;37.80
11583;DHT22;34299;50.820;4.548;2023-06-14T16:06:46;41.70;38.60
11583;DHT22;34299;50.820;4.548;2023-06-14T16:09:13;42.70;37.70
11583;DHT22;34299;50.820;4.548;2023-06-14T16:11:42;42.30;36.80
11583;DHT22;34299;50.820;4.548;2023-06-14T16:14:09;40.70;37.00
11583;DHT22;34299;50.820;4.548;2023-06-14T16:16:36;40.70;37.50
11583;DHT22;34299;50.820;4.548;2023-06-14T16:19:03;40.30;39.00
11583;DHT22;34299;50.820;4.548;2023-06-14T16:21:30;42.10;39.40
11583;DHT22;34299;50.820;4.548;2023-06-14T16:23:59;42.70;37.30
11583;DHT22;34299;50.820;4.548;2023-06-14T16:26:26;41.30;36.70
11583;DHT22;34299;50.820;4.548;2023-06-14T16:28:55;40.20;37.70
11583;DHT22;34299;50.820;4.548;2023-06-14T16:31:22;39.60;38.30
11583;DHT22;34299;50.820;4.548;2023-06-14T16:33:49;41.10;38.10
11583;DHT22;34299;50.820;4.548;2023-06-14T16:36:19;41.50;37.90
11583;DHT22;34299;50.820;4.548;2023-06-14T16:38:46;41.10;38.30
11583;DHT22;34299;50.820;4.548;2023-06-14T16:41:14;41.60;37.70
11583;DHT22;34299;50.820;4.548;2023-06-14T16:43:41;41.80;37.60
11583;DHT22;34299;50.820;4.548;2023-06-14T16:46:09;41.10;37.40
11583;DHT22;34299;50.820;4.548;2023-06-14T16:48:38;40.90;37.10
11583;DHT22;34299;50.820;4.548;2023-06-14T16:51:05;41.20;36.70
11583;DHT22;34299;50.820;4.548;2023-06-14T16:53:32;41.40;36.80
11583;DHT22;34299;50.820;4.548;2023-06-14T16:55:59;41.50;37.70
11583;DHT22;34299;50.820;4.548;2023-06-14T16:58:28;41.50;37.30
11583;DHT22;34299;50.820;4.548;2023-06-14T17:00:55;41.10;36.00
11583;DHT22;34299;50.820;4.548;2023-06-14T17:03:24;41.20;37.90
11583;DHT22;34299;50.820;4.548;2023-06-14T17:05:55;39.60;38.40
11583;DHT22;34299;50.820;4.548;2023-06-14T17:08:23;39.10;37.70
11583;DHT22;34299;50.820;4.548;2023-06-14T17:10:51;39.80;38.80
11583;DHT22;34299;50.820;4.548;2023-06-14T17:13:18;40.40;38.70
11583;DHT22;34299;50.820;4.548;2023-06-14T17:15:46;41.30;37.80
11583;DHT22;34299;50.820;4.548;2023-06-14T17:18:13;40.50;36.80
11583;DHT22;34299;50.820;4.548;2023-06-14T17:20:41;39.60;37.40
11583;DHT22;34299;50.820;4.548;2023-06-14T17:23:08;40.10;36.90
11583;DHT22;34299;50.820;4.548;2023-06-14T17:25:35;39.90;38.30
11583;DHT22;34299;50.820;4.548;2023-06-14T17:28:03;39.90;37.70
11583;DHT22;34299;50.820;4.548;2023-06-14T17:30:30;39.50;38.00
11583;DHT22;34299;50.820;4.548;2023-06-14T17:32:57;39.00;39.00
11583;DHT22;34299;50.820;4.548;2023-06-14T17:35:24;39.20;38.10
11583;DHT22;34299;50.820;4.548;2023-06-14T17:37:52;38.80;38.30
11583;DHT22;34299;50.820;4.548;2023-06-14T17:40:19;38.70;38.90
11583;DHT22;34299;50.820;4.548;2023-06-14T17:42:46;38.40;38.80
11583;DHT22;34299;50.820;4.548;2023-06-14T17:45:13;38.40;39.00